Terminal Aerodrome Forecast
Issued by NWS Grand Junction, CO

Current Version | Previous Version | Text Only | Print | Product List | Glossary On
Versions: 1 2 3 4 5 6 7 8 9 10 11 12 13 14 15 16 17 18 19 20 21 22 23 24 25 26 27 28 29 30 31 32 33 34 35 36 37 38 39 40 41 42 43 44 45 46 47 48 49
000
FTUS45 KGJT 200115 AAA
TAFGJT
TAF AMD
KGJT 200115Z 2001/2024 33003KT P6SM BKN050 BKN180
     FM200200 06003KT P6SM BKN050 BKN180
     FM200800 13005KT P6SM BKN050 BKN100
     FM202000 32004KT P6SM SCT050 BKN100=

USA.gov is the U.S. government's official web portal to all federal, state and local government web resources and services.